sensor_id;sensor_type;location;lat;lon;timestamp;P1;durP1;ratioP1;P2;durP2;ratioP2
9461;SDS011;4769;42.660;23.262;2023-04-12T00:01:51;13.70;;;10.23;;
9461;SDS011;4769;42.660;23.262;2023-04-12T00:04:17;11.67;;;10.20;;
9461;SDS011;4769;42.660;23.262;2023-04-12T00:06:43;10.53;;;9.10;;
9461;SDS011;4769;42.660;23.262;2023-04-12T00:09:09;11.37;;;10.10;;
9461;SDS011;4769;42.660;23.262;2023-04-12T00:11:37;12.27;;;10.23;;
9461;SDS011;4769;42.660;23.262;2023-04-12T00:14:03;13.80;;;10.30;;
9461;SDS011;4769;42.660;23.262;2023-04-12T00:16:28;13.63;;;11.37;;
9461;SDS011;4769;42.660;23.262;2023-04-12T00:18:54;13.80;;;11.00;;
9461;SDS011;4769;42.660;23.262;2023-04-12T00:21:20;13.53;;;10.10;;
9461;SDS011;4769;42.660;23.262;2023-04-12T00:23:45;15.33;;;11.50;;
9461;SDS011;4769;42.660;23.262;2023-04-12T00:26:11;11.07;;;9.87;;
9461;SDS011;4769;42.660;23.262;2023-04-12T00:28:40;14.13;;;11.13;;
9461;SDS011;4769;42.660;23.262;2023-04-12T00:31:06;11.90;;;10.10;;
9461;SDS011;4769;42.660;23.262;2023-04-12T00:33:32;12.97;;;10.83;;
9461;SDS011;4769;42.660;23.262;2023-04-12T00:35:58;13.90;;;10.70;;
9461;SDS011;4769;42.660;23.262;2023-04-12T00:38:24;13.63;;;11.57;;
9461;SDS011;4769;42.660;23.262;2023-04-12T00:40:49;13.90;;;10.90;;
9461;SDS011;4769;42.660;23.262;2023-04-12T00:43:15;14.10;;;10.77;;
9461;SDS011;4769;42.660;23.262;2023-04-12T00:45:44;12.80;;;11.33;;
9461;SDS011;4769;42.660;23.262;2023-04-12T00:48:10;12.53;;;10.90;;
9461;SDS011;4769;42.660;23.262;2023-04-12T00:50:36;12.17;;;10.27;;
9461;SDS011;4769;42.660;23.262;2023-04-12T00:53:02;14.53;;;11.23;;
9461;SDS011;4769;42.660;23.262;2023-04-12T00:55:28;15.57;;;11.20;;
9461;SDS011;4769;42.660;23.262;2023-04-12T00:57:54;14.37;;;11.13;;
9461;SDS011;4769;42.660;23.262;2023-04-12T01:00:19;15.27;;;11.30;;
9461;SDS011;4769;42.660;23.262;2023-04-12T01:02:48;14.73;;;11.53;;
9461;SDS011;4769;42.660;23.262;2023-04-12T01:05:14;13.30;;;11.30;;
9461;SDS011;4769;42.660;23.262;2023-04-12T01:07:44;13.27;;;11.67;;
9461;SDS011;4769;42.660;23.262;2023-04-12T01:10:15;13.93;;;11.20;;
9461;SDS011;4769;42.660;23.262;2023-04-12T01:12:50;13.20;;;10.97;;
9461;SDS011;4769;42.660;23.262;2023-04-12T01:15:23;14.40;;;11.23;;
9461;SDS011;4769;42.660;23.262;2023-04-12T01:17:55;13.93;;;11.13;;
9461;SDS011;4769;42.660;23.262;2023-04-12T01:20:27;14.27;;;10.90;;
9461;SDS011;4769;42.660;23.262;2023-04-12T01:26:09;17.17;;;11.40;;
9461;SDS011;4769;42.660;23.262;2023-04-12T01:28:46;14.13;;;11.00;;
9461;SDS011;4769;42.660;23.262;2023-04-12T01:31:17;13.60;;;11.33;;
9461;SDS011;4769;42.660;23.262;2023-04-12T01:33:44;14.37;;;11.73;;
9461;SDS011;4769;42.660;23.262;2023-04-12T01:36:12;14.93;;;11.30;;
9461;SDS011;4769;42.660;23.262;2023-04-12T01:38:42;14.13;;;12.13;;
9461;SDS011;4769;42.660;23.262;2023-04-12T01:41:08;12.93;;;11.07;;
9461;SDS011;4769;42.660;23.262;2023-04-12T01:43:38;14.07;;;11.50;;
9461;SDS011;4769;42.660;23.262;2023-04-12T01:46:07;17.47;;;12.30;;
9461;SDS011;4769;42.660;23.262;2023-04-12T01:48:33;13.07;;;11.20;;
9461;SDS011;4769;42.660;23.262;2023-04-12T01:51:00;15.13;;;11.33;;
9461;SDS011;4769;42.660;23.262;2023-04-12T01:53:31;14.57;;;11.93;;
9461;SDS011;4769;42.660;23.262;2023-04-12T01:56:08;16.07;;;12.17;;
9461;SDS011;4769;42.660;23.262;2023-04-12T01:58:34;14.77;;;11.93;;
9461;SDS011;4769;42.660;23.262;2023-04-12T02:01:01;16.30;;;11.43;;
9461;SDS011;4769;42.660;23.262;2023-04-12T02:03:30;17.83;;;12.60;;
9461;SDS011;4769;42.660;23.262;2023-04-12T02:05:57;15.00;;;12.67;;
9461;SDS011;4769;42.660;23.262;2023-04-12T02:08:23;14.63;;;11.67;;
9461;SDS011;4769;42.660;23.262;2023-04-12T02:10:50;15.37;;;11.37;;
9461;SDS011;4769;42.660;23.262;2023-04-12T02:13:15;16.23;;;12.90;;
9461;SDS011;4769;42.660;23.262;2023-04-12T02:15:41;13.63;;;12.00;;
9461;SDS011;4769;42.660;23.262;2023-04-12T02:18:07;15.47;;;12.40;;
9461;SDS011;4769;42.660;23.262;2023-04-12T02:20:35;13.07;;;11.70;;
9461;SDS011;4769;42.660;23.262;2023-04-12T02:23:01;13.93;;;12.13;;
9461;SDS011;4769;42.660;23.262;2023-04-12T02:25:27;14.83;;;12.27;;
9461;SDS011;4769;42.660;23.262;2023-04-12T02:27:53;14.50;;;11.93;;
9461;SDS011;4769;42.660;23.262;2023-04-12T02:30:18;15.33;;;13.20;;
9461;SDS011;4769;42.660;23.262;2023-04-12T02:32:44;17.90;;;13.00;;
9461;SDS011;4769;42.660;23.262;2023-04-12T02:35:10;19.80;;;13.00;;
9461;SDS011;4769;42.660;23.262;2023-04-12T02:37:39;17.10;;;12.43;;
9461;SDS011;4769;42.660;23.262;2023-04-12T02:40:05;17.97;;;12.80;;
9461;SDS011;4769;42.660;23.262;2023-04-12T02:42:32;16.00;;;12.80;;
9461;SDS011;4769;42.660;23.262;2023-04-12T02:44:57;16.00;;;12.87;;
9461;SDS011;4769;42.660;23.262;2023-04-12T02:47:23;16.60;;;12.87;;
9461;SDS011;4769;42.660;23.262;2023-04-12T02:49:49;15.93;;;13.07;;
9461;SDS011;4769;42.660;23.262;2023-04-12T02:52:14;13.93;;;11.40;;
9461;SDS011;4769;42.660;23.262;2023-04-12T02:54:43;14.43;;;11.40;;
9461;SDS011;4769;42.660;23.262;2023-04-12T02:57:10;14.30;;;11.87;;
9461;SDS011;4769;42.660;23.262;2023-04-12T02:59:36;14.07;;;11.80;;
9461;SDS011;4769;42.660;23.262;2023-04-12T03:02:02;13.67;;;11.50;;
9461;SDS011;4769;42.660;23.262;2023-04-12T03:04:27;16.77;;;12.93;;
9461;SDS011;4769;42.660;23.262;2023-04-12T03:06:53;15.60;;;13.00;;
9461;SDS011;4769;42.660;23.262;2023-04-12T03:09:19;16.10;;;12.73;;
9461;SDS011;4769;42.660;23.262;2023-04-12T03:11:47;17.67;;;13.93;;
9461;SDS011;4769;42.660;23.262;2023-04-12T03:14:13;19.53;;;14.47;;
9461;SDS011;4769;42.660;23.262;2023-04-12T03:16:39;18.40;;;14.67;;
9461;SDS011;4769;42.660;23.262;2023-04-12T03:19:04;17.93;;;14.30;;
9461;SDS011;4769;42.660;23.262;2023-04-12T03:21:30;20.13;;;15.20;;
9461;SDS011;4769;42.660;23.262;2023-04-12T03:23:56;22.33;;;16.23;;
9461;SDS011;4769;42.660;23.262;2023-04-12T03:26:22;18.33;;;15.73;;
9461;SDS011;4769;42.660;23.262;2023-04-12T03:28:50;18.67;;;15.37;;
9461;SDS011;4769;42.660;23.262;2023-04-12T03:31:16;19.77;;;15.93;;
9461;SDS011;4769;42.660;23.262;2023-04-12T03:33:41;18.90;;;15.50;;
9461;SDS011;4769;42.660;23.262;2023-04-12T03:36:08;17.70;;;14.43;;
9461;SDS011;4769;42.660;23.262;2023-04-12T03:38:34;20.10;;;15.63;;
9461;SDS011;4769;42.660;23.262;2023-04-12T03:41:00;19.47;;;15.93;;
9461;SDS011;4769;42.660;23.262;2023-04-12T03:43:26;18.13;;;13.83;;
9461;SDS011;4769;42.660;23.262;2023-04-12T03:45:54;17.70;;;13.53;;
9461;SDS011;4769;42.660;23.262;2023-04-12T03:48:20;17.30;;;14.27;;
9461;SDS011;4769;42.660;23.262;2023-04-12T03:50:45;19.27;;;15.00;;
9461;SDS011;4769;42.660;23.262;2023-04-12T03:53:11;18.47;;;15.23;;
9461;SDS011;4769;42.660;23.262;2023-04-12T03:55:37;18.00;;;15.03;;
9461;SDS011;4769;42.660;23.262;2023-04-12T03:58:03;18.67;;;14.60;;
9461;SDS011;4769;42.660;23.262;2023-04-12T04:00:29;20.17;;;14.97;;
9461;SDS011;4769;42.660;23.262;2023-04-12T04:02:58;18.30;;;15.27;;
9461;SDS011;4769;42.660;23.262;2023-04-12T04:05:24;20.70;;;15.03;;
9461;SDS011;4769;42.660;23.262;2023-04-12T04:07:52;19.67;;;15.50;;
9461;SDS011;4769;42.660;23.262;2023-04-12T04:10:20;18.77;;;15.67;;
9461;SDS011;4769;42.660;23.262;2023-04-12T04:12:46;18.03;;;15.27;;
9461;SDS011;4769;42.660;23.262;2023-04-12T04:15:13;19.03;;;15.30;;
9461;SDS011;4769;42.660;23.262;2023-04-12T04:17:39;22.03;;;15.90;;
9461;SDS011;4769;42.660;23.262;2023-04-12T04:20:08;22.47;;;16.47;;
9461;SDS011;4769;42.660;23.262;2023-04-12T04:22:34;21.00;;;15.70;;
9461;SDS011;4769;42.660;23.262;2023-04-12T04:25:00;17.37;;;14.93;;
9461;SDS011;4769;42.660;23.262;2023-04-12T04:27:25;20.10;;;15.30;;
9461;SDS011;4769;42.660;23.262;2023-04-12T04:29:52;17.70;;;15.77;;
9461;SDS011;4769;42.660;23.262;2023-04-12T04:32:18;20.90;;;15.67;;
9461;SDS011;4769;42.660;23.262;2023-04-12T04:34:44;18.03;;;14.87;;
9461;SDS011;4769;42.660;23.262;2023-04-12T04:37:13;18.23;;;15.37;;
9461;SDS011;4769;42.660;23.262;2023-04-12T04:39:39;20.17;;;15.33;;
9461;SDS011;4769;42.660;23.262;2023-04-12T04:42:05;17.60;;;14.07;;
9461;SDS011;4769;42.660;23.262;2023-04-12T04:44:31;16.37;;;13.87;;
9461;SDS011;4769;42.660;23.262;2023-04-12T04:46:57;18.20;;;13.97;;
9461;SDS011;4769;42.660;23.262;2023-04-12T04:49:22;17.73;;;13.00;;
9461;SDS011;4769;42.660;23.262;2023-04-12T04:51:48;15.90;;;13.23;;
9461;SDS011;4769;42.660;23.262;2023-04-12T04:54:16;13.90;;;11.23;;
9461;SDS011;4769;42.660;23.262;2023-04-12T04:56:42;15.67;;;12.77;;
9461;SDS011;4769;42.660;23.262;2023-04-12T04:59:08;14.20;;;11.53;;
9461;SDS011;4769;42.660;23.262;2023-04-12T05:01:33;13.77;;;12.10;;
9461;SDS011;4769;42.660;23.262;2023-04-12T05:03:59;15.53;;;11.23;;
9461;SDS011;4769;42.660;23.262;2023-04-12T05:06:25;12.53;;;10.53;;
9461;SDS011;4769;42.660;23.262;2023-04-12T05:08:50;14.17;;;10.50;;
9461;SDS011;4769;42.660;23.262;2023-04-12T05:11:19;12.80;;;11.13;;
9461;SDS011;4769;42.660;23.262;2023-04-12T05:13:45;13.73;;;11.37;;
9461;SDS011;4769;42.660;23.262;2023-04-12T05:16:10;13.80;;;10.20;;
9461;SDS011;4769;42.660;23.262;2023-04-12T05:18:36;14.13;;;10.27;;
9461;SDS011;4769;42.660;23.262;2023-04-12T05:21:02;11.37;;;9.57;;
9461;SDS011;4769;42.660;23.262;2023-04-12T05:23:29;11.43;;;9.10;;
9461;SDS011;4769;42.660;23.262;2023-04-12T05:25:57;12.17;;;9.17;;
9461;SDS011;4769;42.660;23.262;2023-04-12T05:28:25;11.00;;;8.60;;
9461;SDS011;4769;42.660;23.262;2023-04-12T05:30:51;9.40;;;8.40;;
9461;SDS011;4769;42.660;23.262;2023-04-12T05:33:16;10.63;;;8.30;;
9461;SDS011;4769;42.660;23.262;2023-04-12T05:35:42;11.23;;;8.20;;
9461;SDS011;4769;42.660;23.262;2023-04-12T05:38:08;10.00;;;7.67;;
9461;SDS011;4769;42.660;23.262;2023-04-12T05:40:33;10.30;;;7.40;;
9461;SDS011;4769;42.660;23.262;2023-04-12T05:42:59;10.87;;;8.33;;
9461;SDS011;4769;42.660;23.262;2023-04-12T05:45:45;8.57;;;6.80;;
9461;SDS011;4769;42.660;23.262;2023-04-12T05:48:11;8.90;;;6.80;;
9461;SDS011;4769;42.660;23.262;2023-04-12T05:50:39;7.10;;;6.30;;
9461;SDS011;4769;42.660;23.262;2023-04-12T05:53:04;7.20;;;6.37;;
9461;SDS011;4769;42.660;23.262;2023-04-12T05:55:30;6.07;;;5.47;;
9461;SDS011;4769;42.660;23.262;2023-04-12T05:57:56;6.83;;;5.40;;
9461;SDS011;4769;42.660;23.262;2023-04-12T06:00:22;7.80;;;5.70;;
9461;SDS011;4769;42.660;23.262;2023-04-12T06:02:51;5.47;;;4.40;;
9461;SDS011;4769;42.660;23.262;2023-04-12T06:05:16;8.00;;;5.80;;
9461;SDS011;4769;42.660;23.262;2023-04-12T06:07:42;7.13;;;5.57;;
9461;SDS011;4769;42.660;23.262;2023-04-12T06:10:09;6.13;;;4.83;;
9461;SDS011;4769;42.660;23.262;2023-04-12T06:12:35;7.67;;;5.67;;
9461;SDS011;4769;42.660;23.262;2023-04-12T06:15:01;6.57;;;5.80;;
9461;SDS011;4769;42.660;23.262;2023-04-12T06:17:26;6.07;;;5.27;;
9461;SDS011;4769;42.660;23.262;2023-04-12T06:19:55;6.77;;;5.57;;
9461;SDS011;4769;42.660;23.262;2023-04-12T06:22:21;7.50;;;5.43;;
9461;SDS011;4769;42.660;23.262;2023-04-12T06:24:46;7.73;;;5.77;;
9461;SDS011;4769;42.660;23.262;2023-04-12T06:27:12;6.30;;;5.33;;
9461;SDS011;4769;42.660;23.262;2023-04-12T06:29:38;7.60;;;5.00;;
9461;SDS011;4769;42.660;23.262;2023-04-12T06:32:04;7.73;;;5.33;;
9461;SDS011;4769;42.660;23.262;2023-04-12T06:34:30;5.60;;;4.97;;
9461;SDS011;4769;42.660;23.262;2023-04-12T06:36:59;7.87;;;4.83;;
9461;SDS011;4769;42.660;23.262;2023-04-12T06:39:24;5.57;;;4.83;;
9461;SDS011;4769;42.660;23.262;2023-04-12T06:41:50;6.00;;;4.93;;
9461;SDS011;4769;42.660;23.262;2023-04-12T06:44:16;5.33;;;4.70;;
9461;SDS011;4769;42.660;23.262;2023-04-12T06:46:42;8.07;;;5.43;;
9461;SDS011;4769;42.660;23.262;2023-04-12T06:49:07;6.23;;;4.37;;
9461;SDS011;4769;42.660;23.262;2023-04-12T06:51:33;5.90;;;4.50;;
9461;SDS011;4769;42.660;23.262;2023-04-12T06:54:02;5.43;;;4.60;;
9461;SDS011;4769;42.660;23.262;2023-04-12T06:56:28;8.23;;;4.43;;
9461;SDS011;4769;42.660;23.262;2023-04-12T06:58:54;4.00;;;3.60;;
9461;SDS011;4769;42.660;23.262;2023-04-12T07:01:19;5.33;;;4.30;;
9461;SDS011;4769;42.660;23.262;2023-04-12T07:03:45;5.30;;;4.77;;
9461;SDS011;4769;42.660;23.262;2023-04-12T07:06:14;4.77;;;4.37;;
9461;SDS011;4769;42.660;23.262;2023-04-12T07:08:39;6.43;;;4.80;;
9461;SDS011;4769;42.660;23.262;2023-04-12T07:11:08;4.80;;;4.40;;
9461;SDS011;4769;42.660;23.262;2023-04-12T07:13:33;4.93;;;4.20;;
9461;SDS011;4769;42.660;23.262;2023-04-12T07:15:59;5.23;;;4.73;;
9461;SDS011;4769;42.660;23.262;2023-04-12T07:18:25;5.40;;;4.90;;
9461;SDS011;4769;42.660;23.262;2023-04-12T07:20:53;5.37;;;4.87;;
9461;SDS011;4769;42.660;23.262;2023-04-12T07:23:19;4.23;;;3.83;;
9461;SDS011;4769;42.660;23.262;2023-04-12T07:25:45;7.07;;;5.27;;
9461;SDS011;4769;42.660;23.262;2023-04-12T07:28:13;7.33;;;5.77;;
9461;SDS011;4769;42.660;23.262;2023-04-12T07:30:39;5.07;;;4.67;;
9461;SDS011;4769;42.660;23.262;2023-04-12T07:33:05;7.27;;;4.80;;
9461;SDS011;4769;42.660;23.262;2023-04-12T07:35:31;6.63;;;4.63;;
9461;SDS011;4769;42.660;23.262;2023-04-12T07:37:57;4.60;;;4.10;;
9461;SDS011;4769;42.660;23.262;2023-04-12T07:40:23;5.00;;;3.97;;
9461;SDS011;4769;42.660;23.262;2023-04-12T07:42:49;6.33;;;5.67;;
9461;SDS011;4769;42.660;23.262;2023-04-12T07:45:17;6.33;;;4.70;;
9461;SDS011;4769;42.660;23.262;2023-04-12T07:47:43;5.20;;;4.70;;
9461;SDS011;4769;42.660;23.262;2023-04-12T07:50:09;4.33;;;4.03;;
9461;SDS011;4769;42.660;23.262;2023-04-12T07:52:36;5.43;;;3.93;;
9461;SDS011;4769;42.660;23.262;2023-04-12T07:55:01;4.77;;;3.87;;
9461;SDS011;4769;42.660;23.262;2023-04-12T07:57:27;3.93;;;3.63;;
9461;SDS011;4769;42.660;23.262;2023-04-12T07:59:53;3.90;;;3.47;;
9461;SDS011;4769;42.660;23.262;2023-04-12T08:02:21;11.20;;;3.93;;
9461;SDS011;4769;42.660;23.262;2023-04-12T08:04:48;9.03;;;4.43;;
9461;SDS011;4769;42.660;23.262;2023-04-12T08:07:14;3.60;;;2.97;;
9461;SDS011;4769;42.660;23.262;2023-04-12T08:09:39;2.23;;;2.07;;
9461;SDS011;4769;42.660;23.262;2023-04-12T08:12:05;2.73;;;2.50;;
9461;SDS011;4769;42.660;23.262;2023-04-12T08:14:31;3.00;;;2.50;;
9461;SDS011;4769;42.660;23.262;2023-04-12T08:16:57;4.13;;;2.97;;
9461;SDS011;4769;42.660;23.262;2023-04-12T08:19:25;4.53;;;3.07;;
9461;SDS011;4769;42.660;23.262;2023-04-12T08:21:51;6.40;;;3.47;;
9461;SDS011;4769;42.660;23.262;2023-04-12T08:24:17;3.73;;;3.17;;
9461;SDS011;4769;42.660;23.262;2023-04-12T08:26:42;4.70;;;2.77;;
9461;SDS011;4769;42.660;23.262;2023-04-12T08:29:08;6.13;;;2.70;;
9461;SDS011;4769;42.660;23.262;2023-04-12T08:31:34;2.93;;;2.70;;
9461;SDS011;4769;42.660;23.262;2023-04-12T08:33:59;2.70;;;2.50;;
9461;SDS011;4769;42.660;23.262;2023-04-12T08:36:28;4.47;;;2.20;;
9461;SDS011;4769;42.660;23.262;2023-04-12T08:38:56;3.27;;;2.27;;
9461;SDS011;4769;42.660;23.262;2023-04-12T08:41:22;3.50;;;2.27;;
9461;SDS011;4769;42.660;23.262;2023-04-12T08:43:49;5.33;;;2.50;;
9461;SDS011;4769;42.660;23.262;2023-04-12T08:46:15;3.57;;;2.40;;
9461;SDS011;4769;42.660;23.262;2023-04-12T08:48:41;4.07;;;2.60;;
9461;SDS011;4769;42.660;23.262;2023-04-12T08:51:08;2.80;;;2.30;;
9461;SDS011;4769;42.660;23.262;2023-04-12T08:53:40;2.43;;;2.23;;
9461;SDS011;4769;42.660;23.262;2023-04-12T08:56:06;5.03;;;2.60;;
9461;SDS011;4769;42.660;23.262;2023-04-12T08:58:34;2.90;;;2.10;;
9461;SDS011;4769;42.660;23.262;2023-04-12T09:01:03;2.93;;;2.70;;
9461;SDS011;4769;42.660;23.262;2023-04-12T09:03:31;2.90;;;2.10;;
9461;SDS011;4769;42.660;23.262;2023-04-12T09:05:57;3.30;;;2.77;;
9461;SDS011;4769;42.660;23.262;2023-04-12T09:08:27;4.53;;;3.60;;
9461;SDS011;4769;42.660;23.262;2023-04-12T09:10:55;4.93;;;3.20;;
9461;SDS011;4769;42.660;23.262;2023-04-12T09:13:29;9.67;;;4.57;;
9461;SDS011;4769;42.660;23.262;2023-04-12T09:15:56;3.70;;;2.93;;
9461;SDS011;4769;42.660;23.262;2023-04-12T09:18:22;4.93;;;2.50;;
9461;SDS011;4769;42.660;23.262;2023-04-12T09:20:48;5.40;;;2.45;;
9461;SDS011;4769;42.660;23.262;2023-04-12T09:23:16;11.95;;;6.82;;
9461;SDS011;4769;42.660;23.262;2023-04-12T09:25:43;4.68;;;3.45;;
9461;SDS011;4769;42.660;23.262;2023-04-12T09:28:25;3.38;;;2.17;;
9461;SDS011;4769;42.660;23.262;2023-04-12T09:30:52;3.95;;;2.30;;
9461;SDS011;4769;42.660;23.262;2023-04-12T09:33:19;3.60;;;2.50;;
9461;SDS011;4769;42.660;23.262;2023-04-12T09:35:45;5.15;;;3.60;;
9461;SDS011;4769;42.660;23.262;2023-04-12T09:38:11;2.88;;;2.60;;
9461;SDS011;4769;42.660;23.262;2023-04-12T09:40:37;4.50;;;3.10;;
9461;SDS011;4769;42.660;23.262;2023-04-12T09:43:03;6.38;;;3.80;;
9461;SDS011;4769;42.660;23.262;2023-04-12T09:45:32;5.65;;;2.65;;
9461;SDS011;4769;42.660;23.262;2023-04-12T09:47:59;2.30;;;2.10;;
9461;SDS011;4769;42.660;23.262;2023-04-12T09:50:25;10.20;;;6.30;;
9461;SDS011;4769;42.660;23.262;2023-04-12T09:52:52;5.10;;;3.42;;
9461;SDS011;4769;42.660;23.262;2023-04-12T09:55:19;3.85;;;2.72;;
9461;SDS011;4769;42.660;23.262;2023-04-12T09:57:46;3.42;;;1.80;;
9461;SDS011;4769;42.660;23.262;2023-04-12T10:00:15;2.67;;;1.55;;
9461;SDS011;4769;42.660;23.262;2023-04-12T10:02:47;2.65;;;1.83;;
9461;SDS011;4769;42.660;23.262;2023-04-12T10:05:15;2.42;;;1.90;;
9461;SDS011;4769;42.660;23.262;2023-04-12T10:07:42;6.72;;;3.65;;
9461;SDS011;4769;42.660;23.262;2023-04-12T10:10:08;9.10;;;4.57;;
9461;SDS011;4769;42.660;23.262;2023-04-12T10:12:35;5.38;;;3.05;;
9461;SDS011;4769;42.660;23.262;2023-04-12T10:15:02;8.18;;;3.72;;
9461;SDS011;4769;42.660;23.262;2023-04-12T10:17:28;9.18;;;5.45;;
9461;SDS011;4769;42.660;23.262;2023-04-12T10:19:57;5.55;;;3.40;;
9461;SDS011;4769;42.660;23.262;2023-04-12T10:22:23;10.38;;;5.70;;
9461;SDS011;4769;42.660;23.262;2023-04-12T10:24:48;8.68;;;5.55;;
9461;SDS011;4769;42.660;23.262;2023-04-12T10:27:23;5.65;;;3.70;;
9461;SDS011;4769;42.660;23.262;2023-04-12T10:29:49;4.53;;;3.28;;
9461;SDS011;4769;42.660;23.262;2023-04-12T10:32:18;3.20;;;1.92;;
9461;SDS011;4769;42.660;23.262;2023-04-12T10:34:49;4.60;;;1.95;;
9461;SDS011;4769;42.660;23.262;2023-04-12T10:37:18;2.22;;;1.98;;
9461;SDS011;4769;42.660;23.262;2023-04-12T10:39:44;1.92;;;1.60;;
9461;SDS011;4769;42.660;23.262;2023-04-12T10:42:17;2.47;;;2.28;;
9461;SDS011;4769;42.660;23.262;2023-04-12T10:44:44;2.75;;;2.10;;
9461;SDS011;4769;42.660;23.262;2023-04-12T10:47:10;1.55;;;1.45;;
9461;SDS011;4769;42.660;23.262;2023-04-12T10:49:37;2.90;;;2.45;;
9461;SDS011;4769;42.660;23.262;2023-04-12T10:52:10;1.92;;;1.70;;
9461;SDS011;4769;42.660;23.262;2023-04-12T10:54:39;1.90;;;1.70;;
9461;SDS011;4769;42.660;23.262;2023-04-12T10:57:05;4.10;;;1.73;;
9461;SDS011;4769;42.660;23.262;2023-04-12T10:59:49;2.70;;;1.55;;
9461;SDS011;4769;42.660;23.262;2023-04-12T11:02:15;1.88;;;1.65;;
9461;SDS011;4769;42.660;23.262;2023-04-12T11:07:37;3.30;;;2.08;;
9461;SDS011;4769;42.660;23.262;2023-04-12T11:10:06;2.28;;;1.88;;
9461;SDS011;4769;42.660;23.262;2023-04-12T11:12:37;2.90;;;1.90;;
9461;SDS011;4769;42.660;23.262;2023-04-12T11:15:03;4.80;;;2.20;;
9461;SDS011;4769;42.660;23.262;2023-04-12T11:17:29;6.80;;;3.25;;
9461;SDS011;4769;42.660;23.262;2023-04-12T11:19:56;9.82;;;4.40;;
9461;SDS011;4769;42.660;23.262;2023-04-12T11:22:23;6.20;;;4.00;;
9461;SDS011;4769;42.660;23.262;2023-04-12T11:24:52;6.68;;;4.30;;
9461;SDS011;4769;42.660;23.262;2023-04-12T11:27:22;3.00;;;2.15;;
9461;SDS011;4769;42.660;23.262;2023-04-12T11:29:48;2.70;;;1.92;;
9461;SDS011;4769;42.660;23.262;2023-04-12T11:32:16;2.92;;;1.20;;
9461;SDS011;4769;42.660;23.262;2023-04-12T11:34:43;3.22;;;2.05;;
9461;SDS011;4769;42.660;23.262;2023-04-12T11:37:10;4.88;;;2.03;;
9461;SDS011;4769;42.660;23.262;2023-04-12T11:39:37;4.15;;;2.30;;
9461;SDS011;4769;42.660;23.262;2023-04-12T11:42:04;2.67;;;2.42;;
9461;SDS011;4769;42.660;23.262;2023-04-12T11:44:33;4.50;;;2.58;;
9461;SDS011;4769;42.660;23.262;2023-04-12T11:47:00;4.25;;;1.60;;
9461;SDS011;4769;42.660;23.262;2023-04-12T11:49:26;4.55;;;1.50;;
9461;SDS011;4769;42.660;23.262;2023-04-12T11:51:59;2.15;;;1.13;;
9461;SDS011;4769;42.660;23.262;2023-04-12T11:54:26;2.15;;;1.70;;
9461;SDS011;4769;42.660;23.262;2023-04-12T11:56:54;1.63;;;1.20;;
9461;SDS011;4769;42.660;23.262;2023-04-12T11:59:21;4.00;;;1.40;;
9461;SDS011;4769;42.660;23.262;2023-04-12T12:01:51;1.77;;;1.48;;
9461;SDS011;4769;42.660;23.262;2023-04-12T12:04:18;2.88;;;1.50;;
9461;SDS011;4769;42.660;23.262;2023-04-12T12:06:44;3.17;;;1.85;;
9461;SDS011;4769;42.660;23.262;2023-04-12T12:09:10;2.60;;;1.60;;
9461;SDS011;4769;42.660;23.262;2023-04-12T12:11:37;2.50;;;1.10;;
9461;SDS011;4769;42.660;23.262;2023-04-12T12:14:03;1.98;;;1.70;;
9461;SDS011;4769;42.660;23.262;2023-04-12T12:16:28;1.00;;;0.85;;
9461;SDS011;4769;42.660;23.262;2023-04-12T12:18:57;1.85;;;1.25;;
9461;SDS011;4769;42.660;23.262;2023-04-12T12:21:22;4.95;;;1.30;;
9461;SDS011;4769;42.660;23.262;2023-04-12T12:23:49;1.95;;;1.35;;
9461;SDS011;4769;42.660;23.262;2023-04-12T12:26:19;2.10;;;1.40;;
9461;SDS011;4769;42.660;23.262;2023-04-12T12:28:48;2.05;;;1.25;;
9461;SDS011;4769;42.660;23.262;2023-04-12T12:31:17;2.13;;;1.77;;
9461;SDS011;4769;42.660;23.262;2023-04-12T12:33:43;4.25;;;1.58;;
9461;SDS011;4769;42.660;23.262;2023-04-12T12:36:12;2.20;;;1.30;;
9461;SDS011;4769;42.660;23.262;2023-04-12T12:38:41;1.70;;;1.30;;
9461;SDS011;4769;42.660;23.262;2023-04-12T12:41:14;3.15;;;1.60;;
9461;SDS011;4769;42.660;23.262;2023-04-12T12:43:42;2.05;;;1.20;;
9461;SDS011;4769;42.660;23.262;2023-04-12T12:46:09;3.17;;;1.65;;
9461;SDS011;4769;42.660;23.262;2023-04-12T12:48:37;3.30;;;1.73;;
9461;SDS011;4769;42.660;23.262;2023-04-12T12:51:03;4.03;;;1.30;;
9461;SDS011;4769;42.660;23.262;2023-04-12T12:53:32;3.50;;;1.25;;
9461;SDS011;4769;42.660;23.262;2023-04-12T12:55:58;1.42;;;1.33;;
9461;SDS011;4769;42.660;23.262;2023-04-12T12:58:24;3.72;;;1.58;;
9461;SDS011;4769;42.660;23.262;2023-04-12T13:00:50;1.95;;;1.50;;
9461;SDS011;4769;42.660;23.262;2023-04-12T13:03:15;3.47;;;1.65;;
9461;SDS011;4769;42.660;23.262;2023-04-12T13:05:41;3.83;;;2.08;;
9461;SDS011;4769;42.660;23.262;2023-04-12T13:08:07;3.15;;;2.10;;
9461;SDS011;4769;42.660;23.262;2023-04-12T13:10:35;1.85;;;1.60;;
9461;SDS011;4769;42.660;23.262;2023-04-12T13:13:01;1.85;;;1.52;;
9461;SDS011;4769;42.660;23.262;2023-04-12T13:15:27;2.85;;;1.63;;
9461;SDS011;4769;42.660;23.262;2023-04-12T13:17:53;2.70;;;1.70;;
9461;SDS011;4769;42.660;23.262;2023-04-12T13:20:19;1.35;;;1.25;;
9461;SDS011;4769;42.660;23.262;2023-04-12T13:22:45;2.67;;;1.20;;
9461;SDS011;4769;42.660;23.262;2023-04-12T13:25:10;2.63;;;1.50;;
9461;SDS011;4769;42.660;23.262;2023-04-12T13:27:39;0.80;;;0.73;;
9461;SDS011;4769;42.660;23.262;2023-04-12T13:30:05;1.73;;;1.20;;
9461;SDS011;4769;42.660;23.262;2023-04-12T13:32:31;1.98;;;1.73;;
9461;SDS011;4769;42.660;23.262;2023-04-12T13:34:57;1.70;;;1.60;;
9461;SDS011;4769;42.660;23.262;2023-04-12T13:37:23;1.30;;;1.20;;
9461;SDS011;4769;42.660;23.262;2023-04-12T13:39:49;2.30;;;1.30;;
9461;SDS011;4769;42.660;23.262;2023-04-12T13:42:15;2.10;;;1.30;;
9461;SDS011;4769;42.660;23.262;2023-04-12T13:44:43;1.42;;;1.30;;
9461;SDS011;4769;42.660;23.262;2023-04-12T13:47:09;2.75;;;0.90;;
9461;SDS011;4769;42.660;23.262;2023-04-12T13:49:35;2.47;;;1.35;;
9461;SDS011;4769;42.660;23.262;2023-04-12T13:52:01;1.60;;;1.50;;
9461;SDS011;4769;42.660;23.262;2023-04-12T13:54:27;4.95;;;2.17;;
9461;SDS011;4769;42.660;23.262;2023-04-12T13:56:53;2.05;;;1.50;;
9461;SDS011;4769;42.660;23.262;2023-04-12T13:59:19;3.42;;;1.80;;
9461;SDS011;4769;42.660;23.262;2023-04-12T14:01:47;2.17;;;1.98;;
9461;SDS011;4769;42.660;23.262;2023-04-12T14:04:13;2.42;;;1.50;;
9461;SDS011;4769;42.660;23.262;2023-04-12T14:06:38;1.70;;;1.30;;
9461;SDS011;4769;42.660;23.262;2023-04-12T14:09:04;3.72;;;2.15;;
9461;SDS011;4769;42.660;23.262;2023-04-12T14:11:30;2.47;;;1.45;;
9461;SDS011;4769;42.660;23.262;2023-04-12T14:14:09;1.83;;;1.40;;
9461;SDS011;4769;42.660;23.262;2023-04-12T14:16:35;5.32;;;1.88;;
9461;SDS011;4769;42.660;23.262;2023-04-12T14:19:03;4.40;;;1.50;;
9461;SDS011;4769;42.660;23.262;2023-04-12T14:21:29;7.13;;;1.65;;
9461;SDS011;4769;42.660;23.262;2023-04-12T14:23:55;2.80;;;1.50;;
9461;SDS011;4769;42.660;23.262;2023-04-12T14:26:20;1.92;;;1.63;;
9461;SDS011;4769;42.660;23.262;2023-04-12T14:28:46;1.70;;;1.60;;
9461;SDS011;4769;42.660;23.262;2023-04-12T14:31:12;1.85;;;1.65;;
9461;SDS011;4769;42.660;23.262;2023-04-12T14:33:38;2.05;;;1.40;;
9461;SDS011;4769;42.660;23.262;2023-04-12T14:36:06;2.05;;;1.25;;
9461;SDS011;4769;42.660;23.262;2023-04-12T14:38:32;2.47;;;1.40;;
9461;SDS011;4769;42.660;23.262;2023-04-12T14:40:58;6.05;;;2.03;;
9461;SDS011;4769;42.660;23.262;2023-04-12T14:43:24;5.20;;;2.00;;
9461;SDS011;4769;42.660;23.262;2023-04-12T14:45:49;1.48;;;1.38;;
9461;SDS011;4769;42.660;23.262;2023-04-12T14:48:15;2.60;;;1.23;;
9461;SDS011;4769;42.660;23.262;2023-04-12T14:50:41;1.45;;;1.05;;
9461;SDS011;4769;42.660;23.262;2023-04-12T14:53:09;1.98;;;1.20;;
9461;SDS011;4769;42.660;23.262;2023-04-12T14:55:35;1.77;;;1.20;;